sensor_id;sensor_type;location;lat;lon;timestamp;P1;durP1;ratioP1;P2;durP2;ratioP2
29686;SDS011;16599;47.078;15.536;2023-04-25T00:01:55;7.00;;;3.10;;
29686;SDS011;16599;47.078;15.536;2023-04-25T00:04:22;4.43;;;2.92;;
29686;SDS011;16599;47.078;15.536;2023-04-25T00:06:50;8.48;;;3.00;;
29686;SDS011;16599;47.078;15.536;2023-04-25T00:09:18;4.75;;;3.03;;
29686;SDS011;16599;47.078;15.536;2023-04-25T00:11:45;6.32;;;2.95;;
29686;SDS011;16599;47.078;15.536;2023-04-25T00:14:12;8.45;;;2.78;;
29686;SDS011;16599;47.078;15.536;2023-04-25T00:16:38;4.50;;;2.88;;
29686;SDS011;16599;47.078;15.536;2023-04-25T00:19:07;4.50;;;2.65;;
29686;SDS011;16599;47.078;15.536;2023-04-25T00:21:35;10.77;;;2.80;;
29686;SDS011;16599;47.078;15.536;2023-04-25T00:24:03;7.47;;;2.70;;
29686;SDS011;16599;47.078;15.536;2023-04-25T00:26:30;6.05;;;2.67;;
29686;SDS011;16599;47.078;15.536;2023-04-25T00:28:57;6.18;;;2.50;;
29686;SDS011;16599;47.078;15.536;2023-04-25T00:31:24;3.42;;;2.40;;
29686;SDS011;16599;47.078;15.536;2023-04-25T00:33:51;9.18;;;2.88;;
29686;SDS011;16599;47.078;15.536;2023-04-25T00:36:19;8.05;;;3.17;;
29686;SDS011;16599;47.078;15.536;2023-04-25T00:38:46;3.78;;;2.72;;
29686;SDS011;16599;47.078;15.536;2023-04-25T00:41:14;4.72;;;3.05;;
29686;SDS011;16599;47.078;15.536;2023-04-25T00:43:41;7.65;;;2.53;;
29686;SDS011;16599;47.078;15.536;2023-04-25T00:46:08;4.70;;;2.60;;
29686;SDS011;16599;47.078;15.536;2023-04-25T00:48:35;3.85;;;2.78;;
29686;SDS011;16599;47.078;15.536;2023-04-25T00:51:02;4.32;;;3.25;;
29686;SDS011;16599;47.078;15.536;2023-04-25T00:53:30;6.90;;;2.88;;
29686;SDS011;16599;47.078;15.536;2023-04-25T00:55:58;4.80;;;3.05;;
29686;SDS011;16599;47.078;15.536;2023-04-25T00:58:25;4.13;;;2.65;;
29686;SDS011;16599;47.078;15.536;2023-04-25T01:00:52;11.88;;;2.97;;
29686;SDS011;16599;47.078;15.536;2023-04-25T01:03:19;9.82;;;3.13;;
29686;SDS011;16599;47.078;15.536;2023-04-25T01:05:46;4.72;;;2.92;;
29686;SDS011;16599;47.078;15.536;2023-04-25T01:08:14;4.45;;;2.53;;
29686;SDS011;16599;47.078;15.536;2023-04-25T01:10:41;5.28;;;2.72;;
29686;SDS011;16599;47.078;15.536;2023-04-25T01:13:08;4.05;;;2.70;;
29686;SDS011;16599;47.078;15.536;2023-04-25T01:15:35;6.57;;;2.97;;
29686;SDS011;16599;47.078;15.536;2023-04-25T01:18:03;4.63;;;2.83;;
29686;SDS011;16599;47.078;15.536;2023-04-25T01:20:32;7.88;;;2.78;;
29686;SDS011;16599;47.078;15.536;2023-04-25T01:23:00;6.63;;;2.60;;
29686;SDS011;16599;47.078;15.536;2023-04-25T01:25:32;6.90;;;3.00;;
29686;SDS011;16599;47.078;15.536;2023-04-25T01:27:59;3.97;;;2.50;;
29686;SDS011;16599;47.078;15.536;2023-04-25T01:30:26;10.18;;;2.65;;
29686;SDS011;16599;47.078;15.536;2023-04-25T01:32:56;8.18;;;3.05;;
29686;SDS011;16599;47.078;15.536;2023-04-25T01:35:24;8.32;;;2.65;;
29686;SDS011;16599;47.078;15.536;2023-04-25T01:37:51;6.13;;;2.50;;
29686;SDS011;16599;47.078;15.536;2023-04-25T01:40:18;4.20;;;2.83;;
29686;SDS011;16599;47.078;15.536;2023-04-25T01:42:48;4.03;;;3.10;;
29686;SDS011;16599;47.078;15.536;2023-04-25T01:45:15;5.70;;;2.58;;
29686;SDS011;16599;47.078;15.536;2023-04-25T01:47:43;10.02;;;3.17;;
29686;SDS011;16599;47.078;15.536;2023-04-25T01:52:42;7.28;;;2.30;;
29686;SDS011;16599;47.078;15.536;2023-04-25T01:55:09;3.22;;;2.47;;
29686;SDS011;16599;47.078;15.536;2023-04-25T01:57:36;5.18;;;2.53;;
29686;SDS011;16599;47.078;15.536;2023-04-25T02:00:04;5.45;;;2.80;;
29686;SDS011;16599;47.078;15.536;2023-04-25T02:02:33;4.53;;;2.30;;
29686;SDS011;16599;47.078;15.536;2023-04-25T02:05:00;6.97;;;2.90;;
29686;SDS011;16599;47.078;15.536;2023-04-25T02:07:27;14.70;;;2.40;;
29686;SDS011;16599;47.078;15.536;2023-04-25T02:09:53;5.47;;;2.47;;
29686;SDS011;16599;47.078;15.536;2023-04-25T02:12:20;4.00;;;2.33;;
29686;SDS011;16599;47.078;15.536;2023-04-25T02:14:47;3.95;;;2.10;;
29686;SDS011;16599;47.078;15.536;2023-04-25T02:17:14;8.45;;;2.72;;
29686;SDS011;16599;47.078;15.536;2023-04-25T02:19:42;4.63;;;2.20;;
29686;SDS011;16599;47.078;15.536;2023-04-25T02:22:08;4.72;;;2.15;;
29686;SDS011;16599;47.078;15.536;2023-04-25T02:24:36;8.30;;;1.77;;
29686;SDS011;16599;47.078;15.536;2023-04-25T02:27:03;3.45;;;2.13;;
29686;SDS011;16599;47.078;15.536;2023-04-25T02:29:30;5.20;;;1.95;;
29686;SDS011;16599;47.078;15.536;2023-04-25T02:31:57;5.22;;;2.50;;
29686;SDS011;16599;47.078;15.536;2023-04-25T02:34:23;8.07;;;2.10;;
29686;SDS011;16599;47.078;15.536;2023-04-25T02:36:50;2.47;;;1.75;;
29686;SDS011;16599;47.078;15.536;2023-04-25T02:39:17;5.32;;;1.73;;
29686;SDS011;16599;47.078;15.536;2023-04-25T02:41:44;3.65;;;2.10;;
29686;SDS011;16599;47.078;15.536;2023-04-25T02:44:11;3.42;;;1.92;;
29686;SDS011;16599;47.078;15.536;2023-04-25T02:46:38;1.85;;;1.50;;
29686;SDS011;16599;47.078;15.536;2023-04-25T02:49:05;9.10;;;1.77;;
29686;SDS011;16599;47.078;15.536;2023-04-25T02:51:33;7.82;;;1.73;;
29686;SDS011;16599;47.078;15.536;2023-04-25T02:53:59;4.20;;;1.80;;
29686;SDS011;16599;47.078;15.536;2023-04-25T02:56:26;3.13;;;1.65;;
29686;SDS011;16599;47.078;15.536;2023-04-25T02:58:53;5.63;;;1.90;;
29686;SDS011;16599;47.078;15.536;2023-04-25T03:01:20;6.45;;;2.00;;
29686;SDS011;16599;47.078;15.536;2023-04-25T03:03:47;2.38;;;1.75;;
29686;SDS011;16599;47.078;15.536;2023-04-25T03:06:14;2.50;;;1.77;;
29686;SDS011;16599;47.078;15.536;2023-04-25T03:08:42;2.05;;;1.65;;
29686;SDS011;16599;47.078;15.536;2023-04-25T03:11:09;1.67;;;1.58;;
29686;SDS011;16599;47.078;15.536;2023-04-25T03:13:36;2.67;;;1.30;;
29686;SDS011;16599;47.078;15.536;2023-04-25T03:16:03;2.33;;;1.63;;
29686;SDS011;16599;47.078;15.536;2023-04-25T03:18:31;2.55;;;1.52;;
29686;SDS011;16599;47.078;15.536;2023-04-25T03:20:57;7.13;;;1.70;;
29686;SDS011;16599;47.078;15.536;2023-04-25T03:23:24;4.68;;;1.45;;
29686;SDS011;16599;47.078;15.536;2023-04-25T03:25:52;6.13;;;2.40;;
29686;SDS011;16599;47.078;15.536;2023-04-25T03:28:19;4.05;;;1.65;;
29686;SDS011;16599;47.078;15.536;2023-04-25T03:30:46;3.50;;;1.95;;
29686;SDS011;16599;47.078;15.536;2023-04-25T03:33:13;4.38;;;2.17;;
29686;SDS011;16599;47.078;15.536;2023-04-25T03:35:39;6.03;;;2.08;;
29686;SDS011;16599;47.078;15.536;2023-04-25T03:38:06;4.30;;;2.20;;
29686;SDS011;16599;47.078;15.536;2023-04-25T03:40:33;5.70;;;2.25;;
29686;SDS011;16599;47.078;15.536;2023-04-25T03:43:00;3.10;;;2.10;;
29686;SDS011;16599;47.078;15.536;2023-04-25T03:45:27;3.10;;;2.20;;
29686;SDS011;16599;47.078;15.536;2023-04-25T03:47:54;4.40;;;2.70;;
29686;SDS011;16599;47.078;15.536;2023-04-25T03:50:21;4.72;;;2.60;;
29686;SDS011;16599;47.078;15.536;2023-04-25T03:52:48;3.63;;;2.25;;
29686;SDS011;16599;47.078;15.536;2023-04-25T03:55:14;2.45;;;1.63;;
29686;SDS011;16599;47.078;15.536;2023-04-25T03:57:41;6.88;;;1.90;;
29686;SDS011;16599;47.078;15.536;2023-04-25T04:00:08;3.33;;;1.80;;
29686;SDS011;16599;47.078;15.536;2023-04-25T04:02:36;2.58;;;1.90;;
29686;SDS011;16599;47.078;15.536;2023-04-25T04:05:04;4.63;;;1.80;;
29686;SDS011;16599;47.078;15.536;2023-04-25T04:07:32;6.20;;;1.70;;
29686;SDS011;16599;47.078;15.536;2023-04-25T04:09:59;5.88;;;2.30;;
29686;SDS011;16599;47.078;15.536;2023-04-25T04:12:26;5.68;;;1.90;;
29686;SDS011;16599;47.078;15.536;2023-04-25T04:14:53;2.53;;;1.75;;
29686;SDS011;16599;47.078;15.536;2023-04-25T04:17:19;2.00;;;1.80;;
29686;SDS011;16599;47.078;15.536;2023-04-25T04:19:46;5.82;;;2.45;;
29686;SDS011;16599;47.078;15.536;2023-04-25T04:22:13;4.57;;;2.00;;
29686;SDS011;16599;47.078;15.536;2023-04-25T04:24:40;3.88;;;1.95;;
29686;SDS011;16599;47.078;15.536;2023-04-25T04:27:10;3.38;;;1.88;;
29686;SDS011;16599;47.078;15.536;2023-04-25T04:29:38;4.43;;;1.85;;
29686;SDS011;16599;47.078;15.536;2023-04-25T04:32:05;2.65;;;2.13;;
29686;SDS011;16599;47.078;15.536;2023-04-25T04:34:35;4.85;;;2.03;;
29686;SDS011;16599;47.078;15.536;2023-04-25T04:37:01;4.88;;;2.25;;
29686;SDS011;16599;47.078;15.536;2023-04-25T04:39:28;7.35;;;5.78;;
29686;SDS011;16599;47.078;15.536;2023-04-25T04:41:55;3.70;;;2.70;;
29686;SDS011;16599;47.078;15.536;2023-04-25T04:44:22;8.45;;;2.85;;
29686;SDS011;16599;47.078;15.536;2023-04-25T04:46:49;2.75;;;2.38;;
29686;SDS011;16599;47.078;15.536;2023-04-25T04:49:16;4.93;;;2.45;;
29686;SDS011;16599;47.078;15.536;2023-04-25T04:51:43;4.63;;;2.50;;
29686;SDS011;16599;47.078;15.536;2023-04-25T04:54:10;9.40;;;2.65;;
29686;SDS011;16599;47.078;15.536;2023-04-25T04:56:37;16.52;;;6.40;;
29686;SDS011;16599;47.078;15.536;2023-04-25T04:59:04;4.70;;;2.78;;
29686;SDS011;16599;47.078;15.536;2023-04-25T05:01:31;3.03;;;2.00;;
29686;SDS011;16599;47.078;15.536;2023-04-25T05:03:58;11.50;;;2.42;;
29686;SDS011;16599;47.078;15.536;2023-04-25T05:06:27;5.20;;;2.47;;
29686;SDS011;16599;47.078;15.536;2023-04-25T05:08:57;8.52;;;2.53;;
29686;SDS011;16599;47.078;15.536;2023-04-25T05:11:25;9.98;;;2.35;;
29686;SDS011;16599;47.078;15.536;2023-04-25T05:13:52;9.63;;;2.83;;
29686;SDS011;16599;47.078;15.536;2023-04-25T05:16:19;7.50;;;2.95;;
29686;SDS011;16599;47.078;15.536;2023-04-25T05:18:47;4.57;;;3.35;;
29686;SDS011;16599;47.078;15.536;2023-04-25T05:21:13;5.82;;;3.38;;
29686;SDS011;16599;47.078;15.536;2023-04-25T05:23:40;7.10;;;2.92;;
29686;SDS011;16599;47.078;15.536;2023-04-25T05:26:07;4.05;;;2.50;;
29686;SDS011;16599;47.078;15.536;2023-04-25T05:28:40;7.53;;;2.83;;
29686;SDS011;16599;47.078;15.536;2023-04-25T05:31:09;3.50;;;2.92;;
29686;SDS011;16599;47.078;15.536;2023-04-25T05:33:36;5.18;;;3.22;;
29686;SDS011;16599;47.078;15.536;2023-04-25T05:36:02;4.75;;;2.90;;
29686;SDS011;16599;47.078;15.536;2023-04-25T05:38:30;8.40;;;3.42;;
29686;SDS011;16599;47.078;15.536;2023-04-25T05:41:00;6.40;;;3.10;;
29686;SDS011;16599;47.078;15.536;2023-04-25T05:43:26;5.78;;;3.38;;
29686;SDS011;16599;47.078;15.536;2023-04-25T05:45:53;4.53;;;3.28;;
29686;SDS011;16599;47.078;15.536;2023-04-25T05:48:20;3.83;;;3.40;;
29686;SDS011;16599;47.078;15.536;2023-04-25T05:50:47;4.72;;;3.05;;
29686;SDS011;16599;47.078;15.536;2023-04-25T05:53:14;6.25;;;3.08;;
29686;SDS011;16599;47.078;15.536;2023-04-25T05:55:41;4.22;;;3.40;;
29686;SDS011;16599;47.078;15.536;2023-04-25T05:58:08;6.70;;;3.40;;
29686;SDS011;16599;47.078;15.536;2023-04-25T06:00:35;9.27;;;5.85;;
29686;SDS011;16599;47.078;15.536;2023-04-25T06:03:01;26.35;;;11.73;;
29686;SDS011;16599;47.078;15.536;2023-04-25T06:05:29;10.65;;;6.72;;
29686;SDS011;16599;47.078;15.536;2023-04-25T06:07:56;9.23;;;5.90;;
29686;SDS011;16599;47.078;15.536;2023-04-25T06:10:23;13.07;;;7.80;;
29686;SDS011;16599;47.078;15.536;2023-04-25T06:12:50;12.30;;;7.43;;
29686;SDS011;16599;47.078;15.536;2023-04-25T06:15:16;19.42;;;7.20;;
29686;SDS011;16599;47.078;15.536;2023-04-25T06:17:54;6.03;;;4.40;;
29686;SDS011;16599;47.078;15.536;2023-04-25T06:20:21;6.72;;;4.63;;
29686;SDS011;16599;47.078;15.536;2023-04-25T06:22:50;5.80;;;3.70;;
29686;SDS011;16599;47.078;15.536;2023-04-25T06:25:18;4.32;;;3.65;;
29686;SDS011;16599;47.078;15.536;2023-04-25T06:27:45;4.45;;;3.65;;
29686;SDS011;16599;47.078;15.536;2023-04-25T06:30:12;5.85;;;3.13;;
29686;SDS011;16599;47.078;15.536;2023-04-25T06:32:39;6.00;;;3.03;;
29686;SDS011;16599;47.078;15.536;2023-04-25T06:35:06;6.90;;;2.72;;
29686;SDS011;16599;47.078;15.536;2023-04-25T06:37:33;6.47;;;2.42;;
29686;SDS011;16599;47.078;15.536;2023-04-25T06:40:00;6.38;;;2.10;;
29686;SDS011;16599;47.078;15.536;2023-04-25T06:42:27;2.20;;;1.75;;
29686;SDS011;16599;47.078;15.536;2023-04-25T06:44:54;3.70;;;1.90;;
29686;SDS011;16599;47.078;15.536;2023-04-25T06:47:21;5.03;;;2.42;;
29686;SDS011;16599;47.078;15.536;2023-04-25T06:49:47;3.75;;;2.03;;
29686;SDS011;16599;47.078;15.536;2023-04-25T06:52:14;4.45;;;2.10;;
29686;SDS011;16599;47.078;15.536;2023-04-25T06:54:41;2.33;;;1.60;;
29686;SDS011;16599;47.078;15.536;2023-04-25T06:57:08;7.30;;;2.03;;
29686;SDS011;16599;47.078;15.536;2023-04-25T06:59:35;3.65;;;1.92;;
29686;SDS011;16599;47.078;15.536;2023-04-25T07:02:02;4.63;;;1.90;;
29686;SDS011;16599;47.078;15.536;2023-04-25T07:04:29;6.15;;;2.17;;
29686;SDS011;16599;47.078;15.536;2023-04-25T07:06:57;12.45;;;7.45;;
29686;SDS011;16599;47.078;15.536;2023-04-25T07:09:24;11.00;;;8.73;;
29686;SDS011;16599;47.078;15.536;2023-04-25T07:11:51;4.93;;;2.40;;
29686;SDS011;16599;47.078;15.536;2023-04-25T07:14:18;2.95;;;2.70;;
29686;SDS011;16599;47.078;15.536;2023-04-25T07:16:44;3.05;;;1.95;;
29686;SDS011;16599;47.078;15.536;2023-04-25T07:19:11;3.65;;;1.80;;
29686;SDS011;16599;47.078;15.536;2023-04-25T07:21:38;4.03;;;1.63;;
29686;SDS011;16599;47.078;15.536;2023-04-25T07:24:05;1.30;;;1.20;;
29686;SDS011;16599;47.078;15.536;2023-04-25T07:26:32;3.80;;;1.67;;
29686;SDS011;16599;47.078;15.536;2023-04-25T07:28:59;1.63;;;1.30;;
29686;SDS011;16599;47.078;15.536;2023-04-25T07:31:26;2.42;;;1.30;;
29686;SDS011;16599;47.078;15.536;2023-04-25T07:33:53;1.40;;;1.20;;
29686;SDS011;16599;47.078;15.536;2023-04-25T07:36:20;1.23;;;1.13;;
29686;SDS011;16599;47.078;15.536;2023-04-25T07:38:47;2.58;;;1.50;;
29686;SDS011;16599;47.078;15.536;2023-04-25T07:41:15;3.13;;;1.30;;
29686;SDS011;16599;47.078;15.536;2023-04-25T07:43:42;6.38;;;1.50;;
29686;SDS011;16599;47.078;15.536;2023-04-25T07:46:08;1.85;;;1.50;;
29686;SDS011;16599;47.078;15.536;2023-04-25T07:48:35;1.88;;;1.15;;
29686;SDS011;16599;47.078;15.536;2023-04-25T07:51:02;2.45;;;1.75;;
29686;SDS011;16599;47.078;15.536;2023-04-25T07:53:30;2.45;;;1.45;;
29686;SDS011;16599;47.078;15.536;2023-04-25T07:55:58;4.90;;;2.03;;
29686;SDS011;16599;47.078;15.536;2023-04-25T07:58:25;3.00;;;1.60;;
29686;SDS011;16599;47.078;15.536;2023-04-25T08:00:52;2.42;;;1.75;;
29686;SDS011;16599;47.078;15.536;2023-04-25T08:03:19;2.42;;;1.80;;
29686;SDS011;16599;47.078;15.536;2023-04-25T08:05:46;4.55;;;2.05;;
29686;SDS011;16599;47.078;15.536;2023-04-25T08:08:13;2.67;;;1.52;;
29686;SDS011;16599;47.078;15.536;2023-04-25T08:10:40;3.38;;;1.83;;
29686;SDS011;16599;47.078;15.536;2023-04-25T08:13:08;6.35;;;2.05;;
29686;SDS011;16599;47.078;15.536;2023-04-25T08:15:35;1.83;;;1.52;;
29686;SDS011;16599;47.078;15.536;2023-04-25T08:18:02;2.40;;;1.65;;
29686;SDS011;16599;47.078;15.536;2023-04-25T08:20:29;3.60;;;1.60;;
29686;SDS011;16599;47.078;15.536;2023-04-25T08:22:55;2.90;;;1.50;;
29686;SDS011;16599;47.078;15.536;2023-04-25T08:25:22;2.50;;;1.52;;
29686;SDS011;16599;47.078;15.536;2023-04-25T08:27:49;5.82;;;2.08;;
29686;SDS011;16599;47.078;15.536;2023-04-25T08:30:16;2.17;;;1.50;;
29686;SDS011;16599;47.078;15.536;2023-04-25T08:32:42;6.47;;;1.67;;
29686;SDS011;16599;47.078;15.536;2023-04-25T08:35:09;4.22;;;1.60;;
29686;SDS011;16599;47.078;15.536;2023-04-25T08:37:36;2.65;;;1.40;;
29686;SDS011;16599;47.078;15.536;2023-04-25T08:40:03;2.42;;;1.52;;
29686;SDS011;16599;47.078;15.536;2023-04-25T08:42:33;4.30;;;1.30;;
29686;SDS011;16599;47.078;15.536;2023-04-25T08:45:01;2.60;;;1.40;;
29686;SDS011;16599;47.078;15.536;2023-04-25T08:47:33;4.13;;;2.78;;
29686;SDS011;16599;47.078;15.536;2023-04-25T08:50:02;3.72;;;1.55;;
29686;SDS011;16599;47.078;15.536;2023-04-25T08:52:30;3.00;;;1.50;;
29686;SDS011;16599;47.078;15.536;2023-04-25T08:55:02;6.78;;;1.70;;
29686;SDS011;16599;47.078;15.536;2023-04-25T08:57:31;3.58;;;1.38;;
29686;SDS011;16599;47.078;15.536;2023-04-25T08:59:57;1.60;;;1.50;;
29686;SDS011;16599;47.078;15.536;2023-04-25T09:02:26;4.40;;;1.73;;
29686;SDS011;16599;47.078;15.536;2023-04-25T09:04:54;2.45;;;1.60;;
29686;SDS011;16599;47.078;15.536;2023-04-25T09:07:22;4.32;;;1.52;;
29686;SDS011;16599;47.078;15.536;2023-04-25T09:09:49;7.18;;;1.65;;
29686;SDS011;16599;47.078;15.536;2023-04-25T09:12:17;2.95;;;1.52;;
29686;SDS011;16599;47.078;15.536;2023-04-25T09:15:01;5.28;;;1.80;;
29686;SDS011;16599;47.078;15.536;2023-04-25T09:17:32;3.10;;;1.35;;
29686;SDS011;16599;47.078;15.536;2023-04-25T09:20:09;2.45;;;1.50;;
29686;SDS011;16599;47.078;15.536;2023-04-25T09:22:38;4.18;;;1.60;;
29686;SDS011;16599;47.078;15.536;2023-04-25T09:25:09;3.95;;;1.58;;
29686;SDS011;16599;47.078;15.536;2023-04-25T09:27:48;5.32;;;1.40;;
29686;SDS011;16599;47.078;15.536;2023-04-25T09:33:04;2.72;;;1.20;;
29686;SDS011;16599;47.078;15.536;2023-04-25T09:35:43;3.90;;;1.30;;
29686;SDS011;16599;47.078;15.536;2023-04-25T09:38:12;3.83;;;1.42;;
29686;SDS011;16599;47.078;15.536;2023-04-25T09:40:41;5.05;;;1.40;;
29686;SDS011;16599;47.078;15.536;2023-04-25T09:43:23;5.53;;;3.37;;
29686;SDS011;16599;47.078;15.536;2023-04-25T09:45:51;8.43;;;1.60;;
29686;SDS011;16599;47.078;15.536;2023-04-25T09:48:24;3.80;;;1.40;;
29686;SDS011;16599;47.078;15.536;2023-04-25T09:51:06;3.42;;;1.15;;
29686;SDS011;16599;47.078;15.536;2023-04-25T09:53:38;2.42;;;1.40;;
29686;SDS011;16599;47.078;15.536;2023-04-25T09:56:09;1.85;;;1.15;;
29686;SDS011;16599;47.078;15.536;2023-04-25T09:58:38;2.95;;;1.20;;
29686;SDS011;16599;47.078;15.536;2023-04-25T10:01:06;4.07;;;1.50;;
29686;SDS011;16599;47.078;15.536;2023-04-25T10:03:36;4.70;;;1.40;;
29686;SDS011;16599;47.078;15.536;2023-04-25T10:06:11;3.42;;;1.80;;
29686;SDS011;16599;47.078;15.536;2023-04-25T10:08:44;2.22;;;1.33;;
29686;SDS011;16599;47.078;15.536;2023-04-25T10:11:16;5.75;;;1.52;;
29686;SDS011;16599;47.078;15.536;2023-04-25T10:13:43;1.48;;;1.10;;
29686;SDS011;16599;47.078;15.536;2023-04-25T10:16:11;3.05;;;1.13;;
29686;SDS011;16599;47.078;15.536;2023-04-25T10:18:39;3.78;;;1.27;;
29686;SDS011;16599;47.078;15.536;2023-04-25T10:21:05;2.35;;;1.38;;
29686;SDS011;16599;47.078;15.536;2023-04-25T10:23:33;2.58;;;1.40;;
29686;SDS011;16599;47.078;15.536;2023-04-25T10:26:01;2.70;;;1.00;;
29686;SDS011;16599;47.078;15.536;2023-04-25T10:28:28;1.52;;;0.98;;
29686;SDS011;16599;47.078;15.536;2023-04-25T10:31:04;3.85;;;1.15;;
29686;SDS011;16599;47.078;15.536;2023-04-25T10:33:38;2.00;;;1.30;;
29686;SDS011;16599;47.078;15.536;2023-04-25T10:36:15;2.72;;;1.05;;
29686;SDS011;16599;47.078;15.536;2023-04-25T10:38:45;5.10;;;1.30;;
29686;SDS011;16599;47.078;15.536;2023-04-25T10:41:13;2.88;;;1.42;;
29686;SDS011;16599;47.078;15.536;2023-04-25T10:43:43;3.05;;;1.58;;
29686;SDS011;16599;47.078;15.536;2023-04-25T10:48:52;3.03;;;1.40;;
29686;SDS011;16599;47.078;15.536;2023-04-25T10:51:22;2.38;;;1.08;;
29686;SDS011;16599;47.078;15.536;2023-04-25T10:54:00;3.33;;;0.95;;
29686;SDS011;16599;47.078;15.536;2023-04-25T10:56:32;1.50;;;1.00;;
29686;SDS011;16599;47.078;15.536;2023-04-25T10:59:05;3.83;;;1.20;;
29686;SDS011;16599;47.078;15.536;2023-04-25T11:01:36;3.58;;;1.15;;
29686;SDS011;16599;47.078;15.536;2023-04-25T11:04:04;1.52;;;1.00;;
29686;SDS011;16599;47.078;15.536;2023-04-25T11:06:35;2.85;;;1.30;;
29686;SDS011;16599;47.078;15.536;2023-04-25T11:09:08;2.95;;;1.30;;
29686;SDS011;16599;47.078;15.536;2023-04-25T11:11:39;2.20;;;1.23;;
29686;SDS011;16599;47.078;15.536;2023-04-25T11:14:06;3.10;;;1.10;;
29686;SDS011;16599;47.078;15.536;2023-04-25T11:16:33;4.25;;;1.85;;
29686;SDS011;16599;47.078;15.536;2023-04-25T11:19:00;1.75;;;1.38;;
29686;SDS011;16599;47.078;15.536;2023-04-25T11:21:27;6.53;;;1.88;;
29686;SDS011;16599;47.078;15.536;2023-04-25T11:23:58;4.22;;;1.67;;
29686;SDS011;16599;47.078;15.536;2023-04-25T11:26:25;3.05;;;1.63;;
29686;SDS011;16599;47.078;15.536;2023-04-25T11:28:56;4.63;;;2.13;;
29686;SDS011;16599;47.078;15.536;2023-04-25T11:31:25;11.05;;;2.75;;
29686;SDS011;16599;47.078;15.536;2023-04-25T11:33:53;1.35;;;1.05;;
29686;SDS011;16599;47.078;15.536;2023-04-25T11:36:23;1.25;;;0.90;;
29686;SDS011;16599;47.078;15.536;2023-04-25T11:38:51;5.15;;;1.50;;
29686;SDS011;16599;47.078;15.536;2023-04-25T11:41:19;3.17;;;1.20;;
29686;SDS011;16599;47.078;15.536;2023-04-25T11:43:48;2.78;;;1.10;;
29686;SDS011;16599;47.078;15.536;2023-04-25T11:46:16;1.33;;;0.80;;
29686;SDS011;16599;47.078;15.536;2023-04-25T11:48:43;1.00;;;0.90;;
29686;SDS011;16599;47.078;15.536;2023-04-25T11:51:10;2.85;;;1.42;;
29686;SDS011;16599;47.078;15.536;2023-04-25T11:53:40;3.88;;;1.00;;
29686;SDS011;16599;47.078;15.536;2023-04-25T11:56:09;2.00;;;1.10;;
29686;SDS011;16599;47.078;15.536;2023-04-25T12:01:30;1.65;;;1.10;;
29686;SDS011;16599;47.078;15.536;2023-04-25T12:04:17;3.40;;;1.00;;
29686;SDS011;16599;47.078;15.536;2023-04-25T12:06:49;1.90;;;0.98;;
29686;SDS011;16599;47.078;15.536;2023-04-25T12:09:19;4.88;;;1.10;;
29686;SDS011;16599;47.078;15.536;2023-04-25T12:11:48;1.05;;;0.75;;
29686;SDS011;16599;47.078;15.536;2023-04-25T12:16:50;3.83;;;1.40;;
29686;SDS011;16599;47.078;15.536;2023-04-25T12:19:18;2.55;;;0.80;;
29686;SDS011;16599;47.078;15.536;2023-04-25T12:21:46;1.55;;;0.75;;
29686;SDS011;16599;47.078;15.536;2023-04-25T12:24:25;3.83;;;0.93;;
29686;SDS011;16599;47.078;15.536;2023-04-25T12:29:28;1.42;;;0.80;;
29686;SDS011;16599;47.078;15.536;2023-04-25T12:32:03;1.48;;;0.80;;
29686;SDS011;16599;47.078;15.536;2023-04-25T12:34:31;2.30;;;0.70;;
29686;SDS011;16599;47.078;15.536;2023-04-25T12:37:01;2.58;;;0.63;;
29686;SDS011;16599;47.078;15.536;2023-04-25T12:39:27;2.15;;;0.70;;
29686;SDS011;16599;47.078;15.536;2023-04-25T12:41:54;4.22;;;0.90;;
29686;SDS011;16599;47.078;15.536;2023-04-25T12:44:21;2.75;;;1.02;;
29686;SDS011;16599;47.078;15.536;2023-04-25T12:46:48;3.97;;;1.45;;
29686;SDS011;16599;47.078;15.536;2023-04-25T12:49:16;0.75;;;0.75;;
29686;SDS011;16599;47.078;15.536;2023-04-25T12:51:44;4.00;;;0.95;;
29686;SDS011;16599;47.078;15.536;2023-04-25T12:54:11;3.92;;;1.80;;
29686;SDS011;16599;47.078;15.536;2023-04-25T12:56:38;3.35;;;1.30;;
29686;SDS011;16599;47.078;15.536;2023-04-25T12:59:06;2.03;;;0.93;;
29686;SDS011;16599;47.078;15.536;2023-04-25T13:01:33;2.33;;;1.00;;
29686;SDS011;16599;47.078;15.536;2023-04-25T13:04:02;3.70;;;0.90;;
29686;SDS011;16599;47.078;15.536;2023-04-25T13:06:29;2.35;;;1.10;;
29686;SDS011;16599;47.078;15.536;2023-04-25T13:08:57;3.38;;;1.00;;
29686;SDS011;16599;47.078;15.536;2023-04-25T13:11:24;3.97;;;1.38;;
29686;SDS011;16599;47.078;15.536;2023-04-25T13:13:50;3.97;;;1.08;;
29686;SDS011;16599;47.078;15.536;2023-04-25T13:16:18;2.55;;;1.38;;
29686;SDS011;16599;47.078;15.536;2023-04-25T13:18:47;8.15;;;3.10;;
29686;SDS011;16599;47.078;15.536;2023-04-25T13:21:14;7.30;;;4.05;;
29686;SDS011;16599;47.078;15.536;2023-04-25T13:23:41;4.32;;;1.42;;
29686;SDS011;16599;47.078;15.536;2023-04-25T13:26:09;4.35;;;1.13;;
29686;SDS011;16599;47.078;15.536;2023-04-25T13:28:36;2.42;;;1.02;;
29686;SDS011;16599;47.078;15.536;2023-04-25T13:31:03;2.90;;;1.00;;
29686;SDS011;16599;47.078;15.536;2023-04-25T13:33:30;2.63;;;1.30;;
29686;SDS011;16599;47.078;15.536;2023-04-25T13:35:57;1.60;;;0.93;;
29686;SDS011;16599;47.078;15.536;2023-04-25T13:38:24;3.28;;;1.63;;
29686;SDS011;16599;47.078;15.536;2023-04-25T13:40:54;1.25;;;0.85;;
29686;SDS011;16599;47.078;15.536;2023-04-25T13:43:21;2.28;;;0.88;;
29686;SDS011;16599;47.078;15.536;2023-04-25T13:45:49;1.85;;;1.00;;
29686;SDS011;16599;47.078;15.536;2023-04-25T13:48:17;3.50;;;1.15;;
29686;SDS011;16599;47.078;15.536;2023-04-25T13:50:44;2.45;;;1.08;;
29686;SDS011;16599;47.078;15.536;2023-04-25T13:53:12;5.60;;;1.10;;
29686;SDS011;16599;47.078;15.536;2023-04-25T13:55:39;3.92;;;0.90;;
29686;SDS011;16599;47.078;15.536;2023-04-25T13:58:06;1.80;;;0.95;;
29686;SDS011;16599;47.078;15.536;2023-04-25T14:00:37;2.80;;;0.98;;
29686;SDS011;16599;47.078;15.536;2023-04-25T14:03:05;5.55;;;1.20;;
29686;SDS011;16599;47.078;15.536;2023-04-25T14:05:36;1.90;;;1.00;;
29686;SDS011;16599;47.078;15.536;2023-04-25T14:08:08;2.42;;;1.20;;
29686;SDS011;16599;47.078;15.536;2023-04-25T14:10:35;4.22;;;1.27;;
29686;SDS011;16599;47.078;15.536;2023-04-25T14:13:03;2.72;;;1.17;;
29686;SDS011;16599;47.078;15.536;2023-04-25T14:15:31;3.80;;;1.27;;
29686;SDS011;16599;47.078;15.536;2023-04-25T14:17:59;5.93;;;1.15;;
29686;SDS011;16599;47.078;15.536;2023-04-25T14:20:27;1.90;;;1.15;;
29686;SDS011;16599;47.078;15.536;2023-04-25T14:22:54;5.85;;;1.60;;
29686;SDS011;16599;47.078;15.536;2023-04-25T14:25:22;2.38;;;0.90;;
29686;SDS011;16599;47.078;15.536;2023-04-25T14:27:49;1.85;;;1.13;;
29686;SDS011;16599;47.078;15.536;2023-04-25T14:30:21;2.20;;;1.10;;
29686;SDS011;16599;47.078;15.536;2023-04-25T14:32:48;5.38;;;1.20;;
29686;SDS011;16599;47.078;15.536;2023-04-25T14:35:16;5.28;;;1.00;;
29686;SDS011;16599;47.078;15.536;2023-04-25T14:37:43;4.20;;;1.13;;
29686;SDS011;16599;47.078;15.536;2023-04-25T14:40:10;7.63;;;1.30;;
29686;SDS011;16599;47.078;15.536;2023-04-25T14:42:39;3.17;;;1.02;;
29686;SDS011;16599;47.078;15.536;2023-04-25T14:45:06;3.95;;;1.10;;
29686;SDS011;16599;47.078;15.536;2023-04-25T14:47:37;6.85;;;1.13;;
29686;SDS011;16599;47.078;15.536;2023-04-25T14:50:05;4.30;;;1.20;;
29686;SDS011;16599;47.078;15.536;2023-04-25T14:52:32;5.00;;;1.40;;
29686;SDS011;16599;47.078;15.536;2023-04-25T14:54:59;1.55;;;1.00;;